Time;durP1;ratioP1;P1;durP2;ratioP2;P2;SDS_P1;SDS_P2;PMS_P1;PMS_P2;Temp;Humidity;BMP_temperature;BMP_pressure;BME280_temperature;BME280_humidity;BME280_pressure;Samples;Min_cycle;Max_cycle;Signal;HPM_P1;HPM_P2
2023/09/08 00:01:50;;;;;;;;;;;;;;;17.29;70.67;101501.69;5022894;28;2546;-77
2023/09/08 00:04:42;;;;;;;;;;;;;;;17.30;70.66;101497.94;5030980;28;2051;-77
2023/09/08 00:07:34;;;;;;;;;;;;;;;17.28;70.62;101495.44;5023561;28;1166;-77
2023/09/08 00:10:26;;;;;;;;;;;;;;;17.29;70.51;101491.63;5022287;28;1947;-78
2023/09/08 00:13:18;;;;;;;;;;;;;;;17.28;70.70;101489.16;5025150;28;2684;-77
2023/09/08 00:16:11;;;;;;;;;;;;;;;17.28;70.50;101489.16;5023624;28;2035;-79
2023/09/08 00:19:02;;;;;;;;;;;;;;;17.28;70.62;101498.16;5026574;28;1897;-79
2023/09/08 00:21:54;;;;;;;;;;;;;;;17.29;70.57;101493.53;5026773;28;1962;-78
2023/09/08 00:24:46;;;;;;;;;;;;;;;17.28;70.68;101494.59;5025657;28;2180;-76
2023/09/08 00:27:38;;;;;;;;;;;;;;;17.28;70.49;101495.44;5031727;28;933;-77
2023/09/08 00:30:29;;;;;;;;;;;;;;;17.27;70.38;101488.34;5025698;28;2084;-76
2023/09/08 00:33:22;;;;;;;;;;;;;;;17.27;70.55;101491.06;5023404;28;1964;-76
2023/09/08 00:36:13;;;;;;;;;;;;;;;17.26;70.67;101486.66;5031216;28;1503;-78
2023/09/08 00:39:05;;;;;;;;;;;;;;;17.27;70.62;101495.69;5030393;28;1739;-79
2023/09/08 00:41:57;;;;;;;;;;;;;;;17.26;70.66;101486.66;5028999;28;2038;-78
2023/09/08 00:44:49;;;;;;;;;;;;;;;17.26;70.41;101486.66;5029968;28;2065;-77
2023/09/08 00:47:41;;;;;;;;;;;;;;;17.25;70.51;101479.56;5023887;28;989;-75
2023/09/08 00:50:33;;;;;;;;;;;;;;;17.25;70.42;101483.13;5022166;28;2019;-78
2023/09/08 00:53:25;;;;;;;;;;;;;;;17.26;70.65;101486.66;5022419;28;1907;-78
2023/09/08 00:56:17;;;;;;;;;;;;;;;17.25;70.45;101479.56;5028137;28;1543;-78
2023/09/08 00:59:09;;;;;;;;;;;;;;;17.25;70.60;101485.84;5028737;28;2623;-78
2023/09/08 01:02:01;;;;;;;;;;;;;;;17.24;70.56;101480.66;5023210;28;2114;-78
2023/09/08 01:04:53;;;;;;;;;;;;;;;17.25;70.60;101479.56;5030643;28;989;-79
2023/09/08 01:07:45;;;;;;;;;;;;;;;17.24;70.60;101478.75;5026189;28;1380;-75
2023/09/08 01:10:39;;;;;;;;;;;;;;;17.25;70.41;101485.03;5026137;28;1999;-77
2023/09/08 01:13:30;;;;;;;;;;;;;;;17.24;70.58;101473.31;5030315;28;1914;-78
2023/09/08 01:16:22;;;;;;;;;;;;;;;17.23;70.38;101482.53;5025554;28;2133;-78
2023/09/08 01:19:14;;;;;;;;;;;;;;;17.23;70.63;101479.81;5023251;28;1732;-77
2023/09/08 01:22:06;;;;;;;;;;;;;;;17.24;70.60;101480.66;5024126;28;2056;-78
2023/09/08 01:24:58;;;;;;;;;;;;;;;17.24;70.53;101477.94;5028796;28;1969;-77
2023/09/08 01:27:50;;;;;;;;;;;;;;;17.23;70.37;101470.81;5026505;28;919;-79
2023/09/08 01:30:42;;;;;;;;;;;;;;;17.23;70.54;101474.38;5028142;28;2179;-78
2023/09/08 01:33:34;;;;;;;;;;;;;;;17.22;70.38;101474.63;5031586;28;2048;-78
2023/09/08 01:36:26;;;;;;;;;;;;;;;17.22;70.50;101464.56;5032193;28;1248;-76
2023/09/08 01:39:18;;;;;;;;;;;;;;;17.22;70.44;101472.72;5033525;28;1964;-78
2023/09/08 01:42:10;;;;;;;;;;;;;;;17.21;70.32;101467.53;5027885;28;1387;-78
2023/09/08 01:45:02;;;;;;;;;;;;;;;17.21;70.39;101465.63;5028032;28;2010;-77
2023/09/08 01:47:54;;;;;;;;;;;;;;;17.22;70.55;101466.44;5032947;28;1193;-77
2023/09/08 01:50:47;;;;;;;;;;;;;;;17.20;70.43;101458.50;5022573;28;2158;-78
2023/09/08 01:53:39;;;;;;;;;;;;;;;17.20;70.29;101460.41;5026750;28;1933;-76
2023/09/08 01:56:30;;;;;;;;;;;;;;;17.20;70.36;101461.22;5029606;28;1265;-77
2023/09/08 01:59:21;;;;;;;;;;;;;;;17.21;70.56;101459.38;5024683;28;2051;-78
2023/09/08 02:02:13;;;;;;;;;;;;;;;17.19;70.53;101451.44;5032990;28;2564;-78
2023/09/08 02:05:05;;;;;;;;;;;;;;;17.19;70.54;101458.78;5027897;28;1934;-79
2023/09/08 02:07:57;;;;;;;;;;;;;;;17.21;70.34;101464.81;5028766;28;1588;-79
2023/09/08 02:10:49;;;;;;;;;;;;;;;17.20;70.48;101460.41;5031751;28;1340;-79
2023/09/08 02:13:41;;;;;;;;;;;;;;;17.19;70.25;101450.59;5025485;28;2113;-80
2023/09/08 02:16:33;;;;;;;;;;;;;;;17.19;70.39;101459.59;5025288;28;2126;-78
2023/09/08 02:19:25;;;;;;;;;;;;;;;17.18;70.35;101446.25;5031033;28;2159;-79
2023/09/08 02:22:17;;;;;;;;;;;;;;;17.18;70.42;101446.25;5022271;28;2009;-79
2023/09/08 02:25:09;;;;;;;;;;;;;;;17.18;70.45;101438.91;5024900;28;3608;-76
2023/09/08 02:28:01;;;;;;;;;;;;;;;17.19;70.33;101434.28;5028720;28;2547;-78
2023/09/08 02:30:53;;;;;;;;;;;;;;;17.19;70.49;101428.84;5030748;28;2550;-77
2023/09/08 02:33:45;;;;;;;;;;;;;;;17.17;70.26;101434.50;5033225;28;1967;-76
2023/09/08 02:36:37;;;;;;;;;;;;;;;17.18;70.43;101429.91;5031407;28;2010;-77
2023/09/08 02:39:29;;;;;;;;;;;;;;;17.18;70.36;101424.47;5031505;28;2003;-77
2023/09/08 02:42:21;;;;;;;;;;;;;;;17.16;70.39;101424.69;5033022;28;2506;-77
2023/09/08 02:45:13;;;;;;;;;;;;;;;17.16;70.23;101432.84;5028011;28;2702;-77
2023/09/08 02:48:04;;;;;;;;;;;;;;;17.16;70.23;101419.25;5028212;28;1131;-76
2023/09/08 02:50:57;;;;;;;;;;;;;;;17.16;70.30;101415.72;5027836;28;2229;-77
2023/09/08 02:53:48;;;;;;;;;;;;;;;17.17;70.36;101414.63;5028355;28;1899;-77
2023/09/08 02:56:39;;;;;;;;;;;;;;;17.15;70.34;101414.88;5032145;28;1055;-77
2023/09/08 02:59:31;;;;;;;;;;;;;;;17.16;70.36;101418.44;5032487;28;1972;-79
2023/09/08 03:02:24;;;;;;;;;;;;;;;17.15;70.38;101419.50;5024462;28;2045;-79
2023/09/08 03:05:15;;;;;;;;;;;;;;;17.15;70.41;101414.88;5030953;28;1024;-76
2023/09/08 03:08:06;;;;;;;;;;;;;;;17.14;70.34;101415.94;5031214;28;1245;-78
2023/09/08 03:10:58;;;;;;;;;;;;;;;17.15;70.14;101408.63;5029830;28;1964;-77
2023/09/08 03:13:50;;;;;;;;;;;;;;;17.14;70.29;101410.50;5028461;28;1962;-77
2023/09/08 03:16:42;;;;;;;;;;;;;;;17.14;70.11;101407.78;5025897;28;2143;-78
2023/09/08 03:19:34;;;;;;;;;;;;;;;17.14;70.29;101407.78;5024740;28;2084;-77
2023/09/08 03:22:26;;;;;;;;;;;;;;;17.14;70.35;101410.50;5031801;28;1182;-77
2023/09/08 03:25:18;;;;;;;;;;;;;;;17.14;70.29;101412.38;5032343;28;2622;-78
2023/09/08 03:28:10;;;;;;;;;;;;;;;17.13;70.23;101400.69;5029455;28;2051;-76
2023/09/08 03:31:02;;;;;;;;;;;;;;;17.13;70.31;101403.41;5021433;28;2160;-77
2023/09/08 03:33:54;;;;;;;;;;;;;;;17.13;70.42;101399.88;5028718;28;1969;-77
2023/09/08 03:36:46;;;;;;;;;;;;;;;17.12;70.36;101390.88;5030497;28;2083;-78
2023/09/08 03:39:38;;;;;;;;;;;;;;;17.13;70.27;101397.13;5029471;28;1736;-78
2023/09/08 03:42:30;;;;;;;;;;;;;;;17.12;70.10;101393.59;5032482;28;1114;-77
2023/09/08 03:45:22;;;;;;;;;;;;;;;17.13;70.36;101399.88;5027417;28;2258;-78
2023/09/08 03:48:15;;;;;;;;;;;;;;;17.12;70.31;101395.47;5026463;28;1959;-78
2023/09/08 03:51:06;;;;;;;;;;;;;;;17.13;70.35;101388.97;5029216;28;1987;-78
2023/09/08 03:53:58;;;;;;;;;;;;;;;17.11;70.02;101391.09;5030834;28;1967;-78
2023/09/08 03:56:50;;;;;;;;;;;;;;;17.12;70.11;101387.31;5029060;28;2084;-78
2023/09/08 03:59:42;;;;;;;;;;;;;;;17.11;70.17;101374.78;5026456;28;2056;-78
2023/09/08 04:02:34;;;;;;;;;;;;;;;17.11;70.14;101372.06;5031145;28;1596;-78
2023/09/08 04:05:27;;;;;;;;;;;;;;;17.10;70.13;101378.56;5024932;28;2038;-79
2023/09/08 04:08:19;;;;;;;;;;;;;;;17.10;70.19;101379.41;5029897;28;2028;-79
2023/09/08 04:11:11;;;;;;;;;;;;;;;17.10;70.25;101373.13;5030700;28;1492;-79
2023/09/08 04:14:03;;;;;;;;;;;;;;;17.11;70.25;101369.34;5023460;28;1906;-77
2023/09/08 04:16:55;;;;;;;;;;;;;;;17.10;70.01;101378.56;5029743;28;2623;-77
2023/09/08 04:19:47;;;;;;;;;;;;;;;17.09;70.27;101369.59;5029693;28;2071;-78
2023/09/08 04:22:39;;;;;;;;;;;;;;;17.09;70.09;101368.75;5026400;28;1150;-78
2023/09/08 04:25:31;;;;;;;;;;;;;;;17.09;70.15;101371.47;5027654;28;2178;-79
2023/09/08 04:28:23;;;;;;;;;;;;;;;17.09;69.99;101376.91;5030935;28;906;-78
2023/09/08 04:31:16;;;;;;;;;;;;;;;17.08;70.12;101376.09;5023661;28;2042;-78
2023/09/08 04:34:08;;;;;;;;;;;;;;;17.09;70.05;101379.63;5026349;28;1906;-78
2023/09/08 04:37:00;;;;;;;;;;;;;;;17.07;70.24;101374.44;5025502;28;1892;-78
2023/09/08 04:39:52;;;;;;;;;;;;;;;17.07;70.16;101369.00;5028581;28;1554;-77
2023/09/08 04:42:45;;;;;;;;;;;;;;;17.07;70.31;101366.28;5028300;28;1464;-77
2023/09/08 04:45:36;;;;;;;;;;;;;;;17.08;70.06;101369.81;5020619;28;1944;-77
2023/09/08 04:48:28;;;;;;;;;;;;;;;17.07;70.21;101368.19;5020978;28;1558;-79
2023/09/08 04:51:19;;;;;;;;;;;;;;;17.05;70.06;101365.69;5031373;28;2234;-80
2023/09/08 04:54:11;;;;;;;;;;;;;;;17.08;70.25;101364.38;5027068;28;3481;-77
2023/09/08 04:57:03;;;;;;;;;;;;;;;17.06;70.21;101367.34;5029435;28;2511;-78
2023/09/08 04:59:54;;;;;;;;;;;;;;;17.05;70.24;101359.41;5033660;28;2039;-79
2023/09/08 05:02:46;;;;;;;;;;;;;;;17.06;70.07;101361.06;5032732;28;2091;-79
2023/09/08 05:05:39;;;;;;;;;;;;;;;17.03;69.98;101360.50;5035708;28;864;-76
2023/09/08 05:08:30;;;;;;;;;;;;;;;17.05;70.08;101362.16;5032941;28;2153;-77
2023/09/08 05:11:21;;;;;;;;;;;;;;;17.06;70.08;101361.06;5028185;28;1570;-78
2023/09/08 05:14:13;;;;;;;;;;;;;;;17.04;70.14;101358.59;5027964;28;2423;-78
2023/09/08 05:17:04;;;;;;;;;;;;;;;17.03;70.30;101360.50;5030775;28;2073;-77
2023/09/08 05:19:56;;;;;;;;;;;;;;;17.04;70.24;101350.44;5027877;28;1564;-78
2023/09/08 05:22:47;;;;;;;;;;;;;;;17.04;70.19;101358.59;5025137;28;2615;-80
2023/09/08 05:25:38;;;;;;;;;;;;;;;17.03;70.11;101357.78;5030312;28;2654;-78
2023/09/08 05:28:30;;;;;;;;;;;;;;;17.02;70.16;101350.66;5030889;28;2119;-79
2023/09/08 05:31:22;;;;;;;;;;;;;;;17.03;70.26;101348.78;5032054;28;2370;-77
2023/09/08 05:34:14;;;;;;;;;;;;;;;17.02;70.07;101350.66;5029071;28;2530;-78
2023/09/08 05:37:06;;;;;;;;;;;;;;;17.02;70.02;101353.38;5025829;28;2066;-78
2023/09/08 05:39:57;;;;;;;;;;;;;;;17.02;70.16;101358.84;5028330;28;2582;-78
2023/09/08 05:42:49;;;;;;;;;;;;;;;17.02;69.96;101358.00;5029199;28;1855;-78
2023/09/08 05:45:41;;;;;;;;;;;;;;;17.02;70.21;101355.28;5033751;28;2161;-78
2023/09/08 05:48:33;;;;;;;;;;;;;;;17.01;69.99;101351.75;5027899;28;2113;-78
2023/09/08 05:51:25;;;;;;;;;;;;;;;17.01;70.12;101340.88;5033281;28;1919;-78
2023/09/08 05:54:17;;;;;;;;;;;;;;;17.01;70.13;101340.88;5025294;28;5162;-77
2023/09/08 05:57:09;;;;;;;;;;;;;;;17.01;70.15;101332.69;5024779;28;4165;-77
2023/09/08 06:00:01;;;;;;;;;;;;;;;17.00;70.17;101328.34;5023346;28;4214;-79
2023/09/08 06:02:53;;;;;;;;;;;;;;;17.02;70.16;101333.50;5028134;28;2451;-78
2023/09/08 06:05:45;;;;;;;;;;;;;;;16.99;70.09;101334.81;5028999;28;1961;-78
2023/09/08 06:08:37;;;;;;;;;;;;;;;17.00;70.06;101339.22;5033858;28;1356;-77
2023/09/08 06:11:29;;;;;;;;;;;;;;;17.00;70.09;101343.81;5021030;28;4253;-78
2023/09/08 06:14:21;;;;;;;;;;;;;;;16.99;70.15;101340.28;5030693;28;1957;-79
2023/09/08 06:17:13;;;;;;;;;;;;;;;17.00;70.03;101349.25;5026839;28;2434;-79
2023/09/08 06:20:06;;;;;;;;;;;;;;;17.00;69.93;101347.38;5026718;28;2502;-77
2023/09/08 06:22:57;;;;;;;;;;;;;;;17.00;69.99;101346.53;5015132;28;2245;-78
2023/09/08 06:25:52;;;;;;;;;;;;;;;16.99;70.10;101347.63;5021631;28;2707;-79
2023/09/08 06:28:45;;;;;;;;;;;;;;;16.99;70.04;101348.44;5013340;28;2882;-78
2023/09/08 06:31:36;;;;;;;;;;;;;;;16.99;70.01;101340.28;5010366;28;2580;-77
2023/09/08 06:34:28;;;;;;;;;;;;;;;16.98;70.11;101332.38;5010676;28;2165;-77
2023/09/08 06:37:20;;;;;;;;;;;;;;;16.99;70.04;101336.72;5014809;28;2225;-76
2023/09/08 06:40:12;;;;;;;;;;;;;;;16.98;70.00;101338.63;5012367;28;1709;-77
2023/09/08 06:43:04;;;;;;;;;;;;;;;16.97;70.11;101331.53;5019022;28;2244;-77
2023/09/08 06:45:56;;;;;;;;;;;;;;;16.98;69.98;101341.34;5010990;28;1843;-77
2023/09/08 06:48:47;;;;;;;;;;;;;;;16.99;70.06;101339.44;5012679;28;2269;-77
2023/09/08 06:51:39;;;;;;;;;;;;;;;16.97;70.10;101339.72;5011901;28;1640;-77
2023/09/08 06:54:32;;;;;;;;;;;;;;;16.98;70.07;101343.25;5027930;28;1902;-77
2023/09/08 06:57:23;;;;;;;;;;;;;;;16.97;69.97;101337.00;5025484;28;2188;-78
2023/09/08 07:00:17;;;;;;;;;;;;;;;16.97;70.14;101330.69;5021697;28;2383;-77
2023/09/08 07:03:08;;;;;;;;;;;;;;;16.97;69.87;101337.00;5021782;28;4783;-78
2023/09/08 07:06:00;;;;;;;;;;;;;;;16.97;70.02;101337.00;5021077;28;1517;-77
2023/09/08 07:08:52;;;;;;;;;;;;;;;16.97;70.08;101336.13;5011705;28;3968;-77
2023/09/08 07:11:44;;;;;;;;;;;;;;;16.96;70.08;101332.59;5017139;28;1794;-77
2023/09/08 07:14:37;;;;;;;;;;;;;;;16.96;70.14;101337.22;5012929;28;2241;-79
2023/09/08 07:17:29;;;;;;;;;;;;;;;16.96;69.95;101332.59;5014378;28;2129;-78
2023/09/08 07:20:21;;;;;;;;;;;;;;;16.96;69.85;101334.50;5011035;28;3510;-78
2023/09/08 07:23:14;;;;;;;;;;;;;;;16.88;77.74;101340.31;5017495;28;2066;-77
2023/09/08 07:26:05;;;;;;;;;;;;;;;16.91;74.35;101342.56;5015686;28;2184;-77
2023/09/08 07:28:57;;;;;;;;;;;;;;;16.94;72.61;101336.63;5016546;28;2169;-78
2023/09/08 07:31:51;;;;;;;;;;;;;;;16.94;72.22;101340.19;5010193;28;1755;-78
2023/09/08 07:34:42;;;;;;;;;;;;;;;16.96;72.04;101343.47;5010994;28;1973;-79
2023/09/08 07:37:34;;;;;;;;;;;;;;;16.96;71.67;101337.22;5012203;28;2418;-76
2023/09/08 07:40:26;;;;;;;;;;;;;;;16.96;71.40;101337.22;5032551;28;1698;-76
2023/09/08 07:43:18;;;;;;;;;;;;;;;16.96;71.44;101334.50;5026556;28;1672;-76
2023/09/08 07:46:10;;;;;;;;;;;;;;;16.95;71.21;101330.94;5024492;28;1545;-76
2023/09/08 07:49:03;;;;;;;;;;;;;;;16.95;71.21;101330.94;5029918;28;2172;-76
2023/09/08 07:51:54;;;;;;;;;;;;;;;16.96;71.09;101339.94;5030262;28;1618;-77
2023/09/08 07:54:46;;;;;;;;;;;;;;;16.96;71.00;101334.50;5019043;28;1910;-77
2023/09/08 07:57:37;;;;;;;;;;;;;;;16.96;71.00;101339.94;5013015;28;2076;-76
2023/09/08 08:00:29;;;;;;;;;;;;;;;16.95;70.99;101332.84;5019551;28;2376;-78
2023/09/08 08:03:21;;;;;;;;;;;;;;;16.95;70.90;101336.41;5009931;28;1996;-77
2023/09/08 08:06:13;;;;;;;;;;;;;;;16.96;70.71;101339.94;5022272;28;1482;-77
2023/09/08 08:09:05;;;;;;;;;;;;;;;16.95;70.87;101346.47;5015798;28;2290;-79
2023/09/08 08:11:57;;;;;;;;;;;;;;;16.94;70.58;101329.31;5011609;28;2137;-77
2023/09/08 08:14:49;;;;;;;;;;;;;;;16.94;70.70;101332.03;5016758;28;2748;-77
2023/09/08 08:17:41;;;;;;;;;;;;;;;16.94;70.65;101337.47;5028853;28;2227;-76
2023/09/08 08:20:34;;;;;;;;;;;;;;;16.95;70.61;101339.13;5027338;28;1950;-77
2023/09/08 08:23:26;;;;;;;;;;;;;;;16.94;70.50;101334.75;5013337;28;1525;-78
2023/09/08 08:26:18;;;;;;;;;;;;;;;16.95;70.69;101335.56;5011555;28;1653;-77
2023/09/08 08:29:09;;;;;;;;;;;;;;;16.94;70.68;101340.19;5009891;28;2175;-76
2023/09/08 08:32:02;;;;;;;;;;;;;;;16.94;70.41;101325.75;5019077;28;1845;-80
2023/09/08 08:34:53;;;;;;;;;;;;;;;16.94;70.48;101331.19;5017267;28;1911;-77
2023/09/08 08:37:45;;;;;;;;;;;;;;;16.93;70.45;101335.81;5013144;28;2303;-77
2023/09/08 08:40:37;;;;;;;;;;;;;;;16.95;70.38;101338.28;5015628;28;1804;-78
2023/09/08 08:43:29;;;;;;;;;;;;;;;16.94;70.43;101336.63;5016687;28;1730;-77
2023/09/08 08:46:21;;;;;;;;;;;;;;;16.94;70.36;101332.03;5032628;28;2059;-76
2023/09/08 08:49:13;;;;;;;;;;;;;;;16.94;70.46;101342.91;5028041;28;2052;-77
2023/09/08 08:52:07;;;;;;;;;;;;;;;16.94;70.53;101333.91;5028552;28;2097;-76
2023/09/08 08:54:58;;;;;;;;;;;;;;;16.94;70.55;101337.47;5028090;28;1965;-78
2023/09/08 08:57:50;;;;;;;;;;;;;;;16.94;70.51;101342.91;5030356;28;2036;-76
2023/09/08 09:00:42;;;;;;;;;;;;;;;16.95;70.45;101343.75;5029287;28;1375;-75
2023/09/08 09:03:37;;;;;;;;;;;;;;;16.94;70.30;101336.63;5034462;28;1049;-78
2023/09/08 09:06:28;;;;;;;;;;;;;;;16.94;70.24;101336.63;5032070;28;1345;-77
2023/09/08 09:09:19;;;;;;;;;;;;;;;16.94;70.34;101342.91;5030463;28;2036;-79
2023/09/08 09:12:11;;;;;;;;;;;;;;;16.94;70.43;101326.59;5027913;28;937;-76
2023/09/08 09:15:04;;;;;;;;;;;;;;;16.94;70.29;101333.91;5030853;28;1906;-76
2023/09/08 09:17:55;;;;;;;;;;;;;;;16.92;70.19;101334.16;5026144;28;2225;-77
2023/09/08 09:20:47;;;;;;;;;;;;;;;16.94;70.43;101325.75;5033340;28;1749;-75
2023/09/08 09:23:39;;;;;;;;;;;;;;;16.95;70.42;101330.13;5027357;28;1719;-76
2023/09/08 09:26:31;;;;;;;;;;;;;;;16.94;70.45;101332.03;5026841;28;2263;-76
2023/09/08 09:29:25;;;;;;;;;;;;;;;16.94;70.30;101325.75;5028744;28;2105;-77
2023/09/08 09:32:18;;;;;;;;;;;;;;;16.94;70.43;101329.31;5028471;28;1763;-77
2023/09/08 09:35:09;;;;;;;;;;;;;;;16.93;70.31;101335.81;5033297;28;2141;-77
2023/09/08 09:38:00;;;;;;;;;;;;;;;16.95;70.40;101332.84;5028516;28;2312;-76
2023/09/08 09:40:52;;;;;;;;;;;;;;;16.94;70.50;101331.19;5027882;28;2321;-79
2023/09/08 09:43:44;;;;;;;;;;;;;;;16.94;70.36;101337.47;5019891;28;4873;-78
2023/09/08 09:46:36;;;;;;;;;;;;;;;16.94;70.45;101340.19;5027280;28;2013;-77
2023/09/08 09:49:31;;;;;;;;;;;;;;;16.94;70.38;101337.47;5026573;28;1603;-77
2023/09/08 09:52:25;;;;;;;;;;;;;;;16.94;70.43;101331.19;5019821;28;5046;-77
2023/09/08 09:55:18;;;;;;;;;;;;;;;16.94;70.41;101332.03;5028449;28;4499;-78
2023/09/08 09:58:10;;;;;;;;;;;;;;;16.95;70.57;101330.13;5024193;28;4582;-78
2023/09/08 10:01:03;;;;;;;;;;;;;;;16.94;70.54;101329.31;5033954;28;991;-78
2023/09/08 10:03:54;;;;;;;;;;;;;;;16.93;70.36;101319.47;5031468;28;2435;-78
2023/09/08 10:06:46;;;;;;;;;;;;;;;16.95;70.57;101322.78;5033955;28;2667;-79
2023/09/08 10:09:38;;;;;;;;;;;;;;;16.95;70.65;101330.13;5029707;28;2055;-77
2023/09/08 10:12:31;;;;;;;;;;;;;;;16.94;70.38;101323.88;5032193;28;2082;-77
2023/09/08 10:15:23;;;;;;;;;;;;;;;16.94;70.50;101320.28;5024072;28;4805;-77
2023/09/08 10:18:16;;;;;;;;;;;;;;;16.96;70.56;101326.34;5021630;28;2212;-77
2023/09/08 10:21:07;;;;;;;;;;;;;;;16.95;70.85;101328.22;5028806;28;3861;-78
2023/09/08 10:23:59;;;;;;;;;;;;;;;16.95;70.55;101321.97;5028529;28;2112;-76
2023/09/08 10:26:52;;;;;;;;;;;;;;;16.95;70.62;101319.25;5031276;28;2055;-77
2023/09/08 10:29:43;;;;;;;;;;;;;;;16.95;70.58;101320.06;5023784;28;1627;-76
2023/09/08 10:32:36;;;;;;;;;;;;;;;16.95;70.57;101320.06;5029832;28;1966;-77
2023/09/08 10:35:27;;;;;;;;;;;;;;;16.95;70.54;101317.34;5030310;28;1908;-77
2023/09/08 10:38:19;;;;;;;;;;;;;;;16.95;70.57;101314.63;5031588;28;1721;-77
2023/09/08 10:41:11;;;;;;;;;;;;;;;16.95;70.52;101322.78;5032440;28;1063;-77
2023/09/08 10:44:04;;;;;;;;;;;;;;;16.95;70.47;101311.09;5028185;28;4859;-76
2023/09/08 10:46:55;;;;;;;;;;;;;;;16.95;70.60;101316.53;5024894;28;5795;-77
2023/09/08 10:49:47;;;;;;;;;;;;;;;16.95;70.63;101321.97;5028610;28;1937;-78
2023/09/08 10:52:39;;;;;;;;;;;;;;;16.97;70.55;101330.69;5029235;28;2142;-76
2023/09/08 10:55:31;;;;;;;;;;;;;;;16.96;70.65;101324.44;5018061;28;2134;-76
2023/09/08 10:58:23;;;;;;;;;;;;;;;16.95;70.52;101322.78;5031092;28;1934;-77
2023/09/08 11:01:15;;;;;;;;;;;;;;;16.95;70.58;101325.50;5028428;28;1777;-77
2023/09/08 11:04:09;;;;;;;;;;;;;;;16.96;70.58;101319.00;5033403;28;2036;-76
2023/09/08 11:07:00;;;;;;;;;;;;;;;16.97;70.66;101319.81;5032940;28;2001;-75
2023/09/08 11:09:52;;;;;;;;;;;;;;;16.97;70.56;101325.25;5023218;28;1004;-76
2023/09/08 11:12:44;;;;;;;;;;;;;;;16.96;70.69;101321.72;5030530;28;2117;-76
2023/09/08 11:15:35;;;;;;;;;;;;;;;16.96;70.55;101310.81;5028266;28;1971;-78
2023/09/08 11:18:27;;;;;;;;;;;;;;;16.98;70.65;101321.47;5030793;28;2036;-76
2023/09/08 11:21:19;;;;;;;;;;;;;;;16.97;70.62;101311.66;5030915;28;2372;-77
2023/09/08 11:24:14;;;;;;;;;;;;;;;16.97;70.61;101322.53;5024033;28;5309;-78
2023/09/08 11:27:06;;;;;;;;;;;;;;;16.97;70.52;101319.81;5030578;28;1408;-79
2023/09/08 11:29:58;;;;;;;;;;;;;;;16.97;70.66;101317.94;5025266;28;4986;-76
2023/09/08 11:32:50;;;;;;;;;;;;;;;16.98;70.50;101316.03;5026913;28;957;-76
2023/09/08 11:35:43;;;;;;;;;;;;;;;16.97;70.61;101308.94;5028007;28;1978;-77
2023/09/08 11:38:34;;;;;;;;;;;;;;;16.97;70.62;101317.09;5027853;28;1991;-75
2023/09/08 11:41:25;;;;;;;;;;;;;;;16.96;70.65;101316.28;5026834;28;4518;-75
2023/09/08 11:44:17;;;;;;;;;;;;;;;16.97;70.66;101317.94;5021982;28;2103;-76
2023/09/08 11:47:11;;;;;;;;;;;;;;;16.98;70.77;101330.47;5027700;28;917;-75
2023/09/08 11:50:02;;;;;;;;;;;;;;;16.99;70.54;101323.13;5030991;28;1111;-77
2023/09/08 11:52:53;;;;;;;;;;;;;;;16.97;70.58;101309.78;5023986;28;2189;-75
2023/09/08 11:55:45;;;;;;;;;;;;;;;16.98;70.58;101321.47;5029041;28;1971;-76
2023/09/08 11:58:37;;;;;;;;;;;;;;;16.99;70.52;101317.69;5022355;28;2319;-77
2023/09/08 12:01:29;;;;;;;;;;;;;;;16.98;70.72;101316.03;5023169;28;2095;-76
2023/09/08 12:04:21;;;;;;;;;;;;;;;16.99;70.75;101309.53;5024936;28;2367;-76
2023/09/08 12:07:14;;;;;;;;;;;;;;;16.99;70.71;101302.19;5024878;28;1955;-75
2023/09/08 12:10:05;;;;;;;;;;;;;;;16.99;70.68;101290.47;5022483;28;2202;-77
2023/09/08 12:13:00;;;;;;;;;;;;;;;16.99;70.71;101295.91;5035410;28;896;-75
2023/09/08 12:15:51;;;;;;;;;;;;;;;16.99;70.50;101298.63;5031404;28;2486;-75
2023/09/08 12:18:45;;;;;;;;;;;;;;;16.99;70.63;101295.91;5022930;28;2512;-76
2023/09/08 12:21:36;;;;;;;;;;;;;;;16.99;70.53;101293.19;5022626;28;2189;-78
2023/09/08 12:24:27;;;;;;;;;;;;;;;17.00;70.61;101297.56;5021979;28;2388;-76
2023/09/08 12:27:19;;;;;;;;;;;;;;;17.00;70.65;101290.25;5027277;28;2445;-78
2023/09/08 12:30:11;;;;;;;;;;;;;;;17.00;70.70;101286.66;5026851;28;2054;-75
2023/09/08 12:33:03;;;;;;;;;;;;;;;17.00;70.70;101278.50;5028615;28;2105;-75
2023/09/08 12:35:55;;;;;;;;;;;;;;;16.99;70.58;101276.88;5029033;28;2179;-76
2023/09/08 12:38:47;;;;;;;;;;;;;;;17.01;70.74;101272.00;5023342;28;1981;-78
2023/09/08 12:41:39;;;;;;;;;;;;;;;17.01;70.73;101277.47;5027572;28;2835;-75
2023/09/08 12:44:30;;;;;;;;;;;;;;;17.01;70.50;101274.72;5029254;28;2083;-77
2023/09/08 12:47:22;;;;;;;;;;;;;;;16.99;70.72;101280.41;5028004;28;2122;-76
2023/09/08 12:50:14;;;;;;;;;;;;;;;17.01;70.56;101280.19;5026597;28;2217;-75
2023/09/08 12:53:05;;;;;;;;;;;;;;;17.01;70.62;101285.63;5018140;28;2885;-75
2023/09/08 12:55:57;;;;;;;;;;;;;;;17.01;70.73;101282.91;5025169;28;2338;-76
2023/09/08 12:58:49;;;;;;;;;;;;;;;17.01;70.55;101277.47;5019660;28;2166;-76
2023/09/08 13:01:42;;;;;;;;;;;;;;;17.01;70.68;101277.47;5026654;28;2133;-78
2023/09/08 13:04:33;;;;;;;;;;;;;;;17.02;70.60;101273.66;5025826;28;2023;-77
2023/09/08 13:07:26;;;;;;;;;;;;;;;17.02;70.69;101273.66;5026356;28;2043;-77
2023/09/08 13:10:17;;;;;;;;;;;;;;;17.02;70.73;101265.50;5024731;28;2487;-75
2023/09/08 13:13:08;;;;;;;;;;;;;;;17.01;70.46;101251.06;5023052;28;1988;-77
2023/09/08 13:16:01;;;;;;;;;;;;;;;17.02;70.65;101252.72;5025072;28;2193;-78
2023/09/08 13:18:52;;;;;;;;;;;;;;;17.01;70.51;101256.50;5031585;28;1689;-75
2023/09/08 13:21:44;;;;;;;;;;;;;;;17.03;70.66;101248.13;5029996;28;2171;-76
2023/09/08 13:24:36;;;;;;;;;;;;;;;17.03;70.63;101231.78;5035578;28;1724;-78
2023/09/08 13:27:27;;;;;;;;;;;;;;;17.02;70.56;101241.81;5025736;28;2200;-77
2023/09/08 13:30:22;;;;;;;;;;;;;;;17.03;70.70;101234.50;5028068;28;2282;-76
2023/09/08 13:33:13;;;;;;;;;;;;;;;17.02;70.61;101227.41;5024490;28;2226;-77
2023/09/08 13:36:04;;;;;;;;;;;;;;;17.03;70.61;101229.88;5028912;28;2229;-76
2023/09/08 13:38:57;;;;;;;;;;;;;;;17.02;70.71;101225.50;5023637;28;2451;-76
2023/09/08 13:41:50;;;;;;;;;;;;;;;17.03;70.50;101226.34;5025539;28;2209;-78
2023/09/08 13:44:42;;;;;;;;;;;;;;;17.04;70.63;101222.53;5029662;28;2070;-76
2023/09/08 13:47:36;;;;;;;;;;;;;;;17.03;70.66;101221.72;5021482;28;2194;-77
2023/09/08 13:50:28;;;;;;;;;;;;;;;17.04;70.69;101225.25;5027985;28;2468;-77
2023/09/08 13:53:22;;;;;;;;;;;;;;;17.03;70.76;101221.72;5026980;28;5175;-77
2023/09/08 13:56:14;;;;;;;;;;;;;;;17.03;70.62;101219.00;5030526;28;5125;-77
2023/09/08 13:59:07;;;;;;;;;;;;;;;17.05;70.68;101220.63;5028802;28;5120;-78
2023/09/08 14:01:59;;;;;;;;;;;;;;;17.03;70.58;101219.00;5027219;28;2355;-75
2023/09/08 14:04:50;;;;;;;;;;;;;;;17.04;70.64;101222.53;5032711;28;1190;-78
2023/09/08 14:07:43;;;;;;;;;;;;;;;17.05;70.66;101226.09;5032907;28;1930;-76
2023/09/08 14:10:35;;;;;;;;;;;;;;;17.04;70.78;101230.72;5031712;28;1058;-76
2023/09/08 14:13:27;;;;;;;;;;;;;;;17.05;70.60;101229.63;5027825;28;989;-76
2023/09/08 14:16:18;;;;;;;;;;;;;;;17.05;70.64;101226.91;5024267;28;1922;-77
2023/09/08 14:19:11;;;;;;;;;;;;;;;17.05;70.53;101221.47;5032165;28;1942;-76
2023/09/08 14:22:02;;;;;;;;;;;;;;;17.06;70.83;101211.41;5027038;28;1495;-76
2023/09/08 14:24:55;;;;;;;;;;;;;;;17.06;70.72;101216.84;5028406;28;2136;-78
2023/09/08 14:27:46;;;;;;;;;;;;;;;17.05;70.71;101210.56;5027394;28;1887;-78
2023/09/08 14:30:40;;;;;;;;;;;;;;;17.06;70.69;101203.22;5030769;28;1024;-75
2023/09/08 14:33:32;;;;;;;;;;;;;;;17.05;70.86;101202.41;5031304;28;1130;-77
2023/09/08 14:36:24;;;;;;;;;;;;;;;17.06;70.68;101197.78;5023239;28;2041;-78
2023/09/08 14:39:17;;;;;;;;;;;;;;;17.06;70.96;101200.50;5031570;28;1070;-76
2023/09/08 14:42:09;;;;;;;;;;;;;;;17.06;70.81;101198.63;5029069;28;1051;-76
2023/09/08 14:45:00;;;;;;;;;;;;;;;17.06;70.73;101209.53;5032743;28;1683;-75
2023/09/08 14:47:52;;;;;;;;;;;;;;;17.07;70.70;101194.00;5034551;28;1925;-76
2023/09/08 14:50:43;;;;;;;;;;;;;;;17.07;70.86;101211.16;5034201;28;1007;-77
2023/09/08 14:53:35;;;;;;;;;;;;;;;17.07;70.72;101210.34;5025199;28;1397;-76
2023/09/08 14:56:28;;;;;;;;;;;;;;;17.08;70.93;101211.97;5028140;28;1959;-76